Time;durP1;ratioP1;P1;durP2;ratioP2;P2;SDS_P1;SDS_P2;PMS_P1;PMS_P2;Temp;Humidity;BMP_temperature;BMP_pressure;BME280_temperature;BME280_humidity;BME280_pressure;Samples;Min_cycle;Max_cycle;Signal;HPM_P1;HPM_P2
2023/07/22 00:02:03;;;;;;;10.63;9.70;;;;;;;;;;5015358;28;20191;-68
2023/07/22 00:04:29;;;;;;;12.40;10.17;;;;;;;;;;5034009;28;20221;-68
2023/07/22 00:06:55;;;;;;;12.40;9.00;;;;;;;;;;5015917;28;20203;-68
2023/07/22 00:09:21;;;;;;;10.93;8.87;;;;;;;;;;5015646;28;20183;-68
2023/07/22 00:11:47;;;;;;;11.23;9.30;;;;;;;;;;5015674;28;20217;-68
2023/07/22 00:14:13;;;;;;;15.13;9.90;;;;;;;;;;5015689;28;20190;-68
2023/07/22 00:16:39;;;;;;;11.60;10.03;;;;;;;;;;5015737;28;20210;-68
2023/07/22 00:19:07;;;;;;;11.00;9.27;;;;;;;;;;5033605;28;20199;-68
2023/07/22 00:21:34;;;;;;;12.10;9.77;;;;;;;;;;5033533;28;20637;-68
2023/07/22 00:24:00;;;;;;;10.47;9.47;;;;;;;;;;5015763;28;20186;-68
2023/07/22 00:26:26;;;;;;;13.90;9.93;;;;;;;;;;5032990;28;20209;-68
2023/07/22 00:28:52;;;;;;;11.63;9.70;;;;;;;;;;5033559;28;20163;-68
2023/07/22 00:31:18;;;;;;;10.37;9.27;;;;;;;;;;5033349;28;20186;-69
2023/07/22 00:33:44;;;;;;;14.83;9.60;;;;;;;;;;5035823;28;20179;-69
2023/07/22 00:36:10;;;;;;;11.20;10.07;;;;;;;;;;5037460;28;20214;-65
2023/07/22 00:38:36;;;;;;;11.27;9.57;;;;;;;;;;5037732;28;20626;-68
2023/07/22 00:41:04;;;;;;;11.30;9.83;;;;;;;;;;5019271;28;20219;-69
2023/07/22 00:43:30;;;;;;;12.23;9.73;;;;;;;;;;5036824;28;20172;-69
2023/07/22 00:45:56;;;;;;;12.10;9.30;;;;;;;;;;5036728;28;20183;-69
2023/07/22 00:48:23;;;;;;;10.93;9.53;;;;;;;;;;5018843;28;20372;-69
2023/07/22 00:50:49;;;;;;;13.43;9.83;;;;;;;;;;5036470;28;20710;-69
2023/07/22 00:53:15;;;;;;;12.23;10.03;;;;;;;;;;5018619;28;20675;-69
2023/07/22 00:55:41;;;;;;;11.27;9.73;;;;;;;;;;5018977;28;20178;-69
2023/07/22 00:58:07;;;;;;;12.83;9.83;;;;;;;;;;5036695;28;20191;-69
2023/07/22 01:00:33;;;;;;;12.53;9.87;;;;;;;;;;5018434;28;20665;-68
2023/07/22 01:02:59;;;;;;;11.17;9.47;;;;;;;;;;5018469;28;20179;-69
2023/07/22 01:05:27;;;;;;;15.80;10.80;;;;;;;;;;5036155;28;20175;-69
2023/07/22 01:07:53;;;;;;;11.00;9.80;;;;;;;;;;5018465;28;20203;-69
2023/07/22 01:10:19;;;;;;;11.37;10.20;;;;;;;;;;5036797;28;20187;-69
2023/07/22 01:12:45;;;;;;;11.90;9.90;;;;;;;;;;5018878;28;20186;-68
2023/07/22 01:15:11;;;;;;;17.90;10.53;;;;;;;;;;5018791;28;20179;-69
2023/07/22 01:17:38;;;;;;;11.70;10.50;;;;;;;;;;5018411;28;20209;-69
2023/07/22 01:20:05;;;;;;;13.67;10.57;;;;;;;;;;5036652;28;20694;-67
2023/07/22 01:22:32;;;;;;;14.93;10.43;;;;;;;;;;5036484;28;20176;-69
2023/07/22 01:24:58;;;;;;;13.93;10.07;;;;;;;;;;5018527;28;20179;-69
2023/07/22 01:27:24;;;;;;;13.83;10.27;;;;;;;;;;5035815;28;20222;-69
2023/07/22 01:29:51;;;;;;;12.77;10.33;;;;;;;;;;5018205;28;20535;-69
2023/07/22 01:32:17;;;;;;;12.60;10.60;;;;;;;;;;5036010;28;20175;-68
2023/07/22 01:34:43;;;;;;;13.07;10.80;;;;;;;;;;5019665;28;20218;-67
2023/07/22 01:37:09;;;;;;;12.90;10.43;;;;;;;;;;5036473;28;20200;-68
2023/07/22 01:39:36;;;;;;;15.07;10.73;;;;;;;;;;5018249;28;20752;-68
2023/07/22 01:42:02;;;;;;;12.83;11.20;;;;;;;;;;5035851;28;20175;-68
2023/07/22 01:44:28;;;;;;;14.77;11.20;;;;;;;;;;5035209;28;20186;-68
2023/07/22 01:46:54;;;;;;;12.47;11.27;;;;;;;;;;5017757;28;20199;-68
2023/07/22 01:49:20;;;;;;;11.93;10.47;;;;;;;;;;5036186;28;20206;-68
2023/07/22 01:51:46;;;;;;;13.77;11.53;;;;;;;;;;5035666;28;20218;-68
2023/07/22 01:54:12;;;;;;;12.10;10.80;;;;;;;;;;5035973;28;20233;-68
2023/07/22 01:56:39;;;;;;;15.10;11.30;;;;;;;;;;5017967;28;20206;-68
2023/07/22 01:59:05;;;;;;;13.03;11.20;;;;;;;;;;5017568;28;20273;-68
2023/07/22 02:01:32;;;;;;;14.37;10.73;;;;;;;;;;5035785;28;20207;-68
2023/07/22 02:03:57;;;;;;;12.03;10.83;;;;;;;;;;5018257;28;20276;-68
2023/07/22 02:06:23;;;;;;;16.03;11.23;;;;;;;;;;5017594;28;20235;-68
2023/07/22 02:08:49;;;;;;;11.57;10.37;;;;;;;;;;5017757;28;20194;-68
2023/07/22 02:11:15;;;;;;;10.67;9.63;;;;;;;;;;5036003;28;20179;-68
2023/07/22 02:13:41;;;;;;;11.90;10.50;;;;;;;;;;5017687;28;20179;-68
2023/07/22 02:16:11;;;;;;;14.00;11.47;;;;;;;;;;5017821;28;20205;-68
2023/07/22 02:18:37;;;;;;;14.90;11.03;;;;;;;;;;5035436;28;20226;-68
2023/07/22 02:21:03;;;;;;;13.93;11.00;;;;;;;;;;5017329;28;20233;-68
2023/07/22 02:23:29;;;;;;;12.07;10.63;;;;;;;;;;5017383;28;20186;-68
2023/07/22 02:25:55;;;;;;;13.07;10.90;;;;;;;;;;5034833;28;20301;-68
2023/07/22 02:28:22;;;;;;;12.87;10.80;;;;;;;;;;5017385;28;20337;-68
2023/07/22 02:30:52;;;;;;;15.13;10.70;;;;;;;;;;5017357;28;20187;-68
2023/07/22 02:33:18;;;;;;;15.73;12.03;;;;;;;;;;5017226;28;20193;-68
2023/07/22 02:35:44;;;;;;;13.40;10.87;;;;;;;;;;5017667;28;20554;-68
2023/07/22 02:38:11;;;;;;;11.77;10.47;;;;;;;;;;5034824;28;20258;-66
2023/07/22 02:40:37;;;;;;;15.87;11.30;;;;;;;;;;5035082;28;20213;-67
2023/07/22 02:43:03;;;;;;;11.90;10.70;;;;;;;;;;5035371;28;20179;-67
2023/07/22 02:45:29;;;;;;;13.93;10.67;;;;;;;;;;5016928;28;20179;-68
2023/07/22 02:47:55;;;;;;;15.00;11.70;;;;;;;;;;5034647;28;20195;-66
2023/07/22 02:50:21;;;;;;;13.90;11.17;;;;;;;;;;5034838;28;20259;-68
2023/07/22 02:52:47;;;;;;;13.20;11.10;;;;;;;;;;5034420;28;20652;-68
2023/07/22 02:55:20;;;;;;;15.07;11.67;;;;;;;;;;5034156;28;20179;-68
2023/07/22 02:57:46;;;;;;;15.07;11.60;;;;;;;;;;5034401;28;20758;-68
2023/07/22 03:00:13;;;;;;;18.17;11.03;;;;;;;;;;5017255;28;20676;-67
2023/07/22 03:02:39;;;;;;;14.37;10.87;;;;;;;;;;5034618;28;20641;-68
2023/07/22 03:05:07;;;;;;;16.73;10.87;;;;;;;;;;5016475;28;20179;-67
2023/07/22 03:07:37;;;;;;;15.57;10.80;;;;;;;;;;5018010;28;20203;-68
2023/07/22 03:10:04;;;;;;;14.17;10.53;;;;;;;;;;5016538;28;20191;-68
2023/07/22 03:12:30;;;;;;;13.03;10.20;;;;;;;;;;5016317;28;20236;-68
2023/07/22 03:14:55;;;;;;;14.97;10.43;;;;;;;;;;5016346;28;20183;-68
2023/07/22 03:17:22;;;;;;;17.07;11.03;;;;;;;;;;5034294;28;20203;-68
2023/07/22 03:19:48;;;;;;;16.13;10.60;;;;;;;;;;5033798;28;20211;-68
2023/07/22 03:22:17;;;;;;;14.40;10.20;;;;;;;;;;5033789;28;20286;-68
2023/07/22 03:24:44;;;;;;;16.77;10.77;;;;;;;;;;5033754;28;20179;-68
2023/07/22 03:27:10;;;;;;;14.67;10.40;;;;;;;;;;5034607;28;20237;-68
2023/07/22 03:29:36;;;;;;;14.30;10.57;;;;;;;;;;5015955;28;20187;-70
2023/07/22 03:32:02;;;;;;;15.63;10.27;;;;;;;;;;5016168;28;20627;-68
2023/07/22 03:34:28;;;;;;;17.63;10.50;;;;;;;;;;5016807;28;20193;-68
2023/07/22 03:36:54;;;;;;;12.20;9.90;;;;;;;;;;5016004;28;20207;-68
2023/07/22 03:39:20;;;;;;;14.80;10.40;;;;;;;;;;5015922;28;20575;-68
2023/07/22 03:41:46;;;;;;;16.83;10.47;;;;;;;;;;5033790;28;20724;-68
2023/07/22 03:44:12;;;;;;;15.40;9.87;;;;;;;;;;5033876;28;20638;-68
2023/07/22 03:46:38;;;;;;;13.90;10.57;;;;;;;;;;5034248;28;20199;-69
2023/07/22 03:49:05;;;;;;;14.80;10.07;;;;;;;;;;5016958;28;20229;-68
2023/07/22 03:51:31;;;;;;;12.63;9.93;;;;;;;;;;5018080;28;20193;-67
2023/07/22 03:53:58;;;;;;;12.03;10.53;;;;;;;;;;5034842;28;20265;-68
2023/07/22 03:56:24;;;;;;;10.67;9.57;;;;;;;;;;5016120;28;20234;-68
2023/07/22 03:58:50;;;;;;;12.37;9.90;;;;;;;;;;5016203;28;20696;-68
2023/07/22 04:01:16;;;;;;;12.70;9.20;;;;;;;;;;5017165;28;20266;-68
2023/07/22 04:03:42;;;;;;;11.20;9.20;;;;;;;;;;5016273;28;20171;-68
2023/07/22 04:06:08;;;;;;;10.53;9.17;;;;;;;;;;5034064;28;20522;-68
2023/07/22 04:08:34;;;;;;;12.27;9.57;;;;;;;;;;5038582;28;20190;-68
2023/07/22 04:11:00;;;;;;;10.87;9.13;;;;;;;;;;5022752;28;20210;-65
2023/07/22 04:13:27;;;;;;;13.60;9.50;;;;;;;;;;5040043;28;20182;-68
2023/07/22 04:15:53;;;;;;;12.40;9.43;;;;;;;;;;5040294;28;20551;-66
2023/07/22 04:18:19;;;;;;;11.33;9.30;;;;;;;;;;5022860;28;20199;-68
2023/07/22 04:20:46;;;;;;;9.93;8.93;;;;;;;;;;5040666;28;20257;-68
2023/07/22 04:23:12;;;;;;;13.13;9.63;;;;;;;;;;5042395;28;20179;-68
2023/07/22 04:25:41;;;;;;;9.83;8.83;;;;;;;;;;5042372;28;20192;-68
2023/07/22 04:28:08;;;;;;;11.50;9.63;;;;;;;;;;5023366;28;20222;-68
2023/07/22 04:30:39;;;;;;;12.67;9.67;;;;;;;;;;5023057;28;20214;-69
2023/07/22 04:33:05;;;;;;;10.90;8.83;;;;;;;;;;5022437;28;20275;-68
2023/07/22 04:35:36;;;;;;;13.07;10.23;;;;;;;;;;5021706;28;20382;-69
2023/07/22 04:38:03;;;;;;;12.35;9.88;;;;;;;;;;5020672;28;20418;-68
2023/07/22 04:40:30;;;;;;;13.70;10.07;;;;;;;;;;5020527;28;20416;-68
2023/07/22 04:42:56;;;;;;;11.67;9.90;;;;;;;;;;5038458;28;20447;-68
2023/07/22 04:45:26;;;;;;;12.43;10.02;;;;;;;;;;5020611;28;20438;-69
2023/07/22 04:47:52;;;;;;;11.43;10.05;;;;;;;;;;5020485;28;20375;-68
2023/07/22 04:50:18;;;;;;;14.00;10.35;;;;;;;;;;5020384;28;20926;-68
2023/07/22 04:52:48;;;;;;;13.57;9.98;;;;;;;;;;5038263;28;20379;-68
2023/07/22 04:55:14;;;;;;;12.75;10.13;;;;;;;;;;5021041;28;20391;-68
2023/07/22 04:57:41;;;;;;;15.20;12.02;;;;;;;;;;5020615;28;20880;-68
2023/07/22 05:00:14;;;;;;;17.48;14.88;;;;;;;;;;5038420;28;20441;-69
2023/07/22 05:02:40;;;;;;;20.42;14.90;;;;;;;;;;5020800;28;20379;-69
2023/07/22 05:05:06;;;;;;;12.85;11.18;;;;;;;;;;5020338;28;20485;-69
2023/07/22 05:07:32;;;;;;;16.90;12.40;;;;;;;;;;5037916;28;20379;-69
2023/07/22 05:09:58;;;;;;;16.08;14.32;;;;;;;;;;5038262;28;20801;-68
2023/07/22 05:12:24;;;;;;;17.42;12.05;;;;;;;;;;5020614;28;20383;-68
2023/07/22 05:14:50;;;;;;;15.05;11.15;;;;;;;;;;5038695;28;20386;-69
2023/07/22 05:17:16;;;;;;;13.83;10.53;;;;;;;;;;5038130;28;20752;-68
2023/07/22 05:19:42;;;;;;;14.32;11.23;;;;;;;;;;5036464;28;20409;-68
2023/07/22 05:22:08;;;;;;;13.35;10.75;;;;;;;;;;5034931;28;20379;-68
2023/07/22 05:24:34;;;;;;;14.43;10.93;;;;;;;;;;5034925;28;20390;-68
2023/07/22 05:27:00;;;;;;;13.52;11.18;;;;;;;;;;5035106;28;20407;-69
2023/07/22 05:29:26;;;;;;;15.68;11.18;;;;;;;;;;5035098;28;20401;-69
2023/07/22 05:31:52;;;;;;;13.98;10.40;;;;;;;;;;5058070;22;20516;-64
2023/07/22 05:34:18;;;;;;;12.88;9.95;;;;;;;;;;5016735;28;20434;-65
2023/07/22 05:36:43;;;;;;;16.30;10.60;;;;;;;;;;5034862;28;20379;-64
2023/07/22 05:39:09;;;;;;;14.80;10.38;;;;;;;;;;5034377;28;20411;-64
2023/07/22 05:41:35;;;;;;;12.45;10.15;;;;;;;;;;5016646;28;20386;-64
2023/07/22 05:44:02;;;;;;;13.45;10.00;;;;;;;;;;5034370;28;20453;-64
2023/07/22 05:46:28;;;;;;;15.65;10.07;;;;;;;;;;5034406;28;20372;-64
2023/07/22 05:48:53;;;;;;;13.15;10.32;;;;;;;;;;5034415;28;20387;-64
2023/07/22 05:51:19;;;;;;;15.68;9.98;;;;;;;;;;5016430;28;20399;-64
2023/07/22 05:53:45;;;;;;;14.10;10.13;;;;;;;;;;5016513;28;20427;-64
2023/07/22 05:56:11;;;;;;;11.52;9.73;;;;;;;;;;5034200;28;20398;-64
2023/07/22 05:58:37;;;;;;;12.57;10.18;;;;;;;;;;5034458;28;20463;-64
2023/07/22 06:01:03;;;;;;;12.02;10.23;;;;;;;;;;5035415;28;20379;-64
2023/07/22 06:03:29;;;;;;;12.17;9.63;;;;;;;;;;5023951;28;20383;-64
2023/07/22 06:05:55;;;;;;;13.57;9.68;;;;;;;;;;5040380;28;20390;-64
2023/07/22 06:08:21;;;;;;;14.60;9.88;;;;;;;;;;5034691;28;20386;-64
2023/07/22 06:10:47;;;;;;;11.23;9.48;;;;;;;;;;5034543;28;20375;-64
2023/07/22 06:13:13;;;;;;;11.67;9.17;;;;;;;;;;5035472;28;20202;-64
2023/07/22 06:15:39;;;;;;;11.00;8.83;;;;;;;;;;5035372;28;20183;-65
2023/07/22 06:18:08;;;;;;;11.17;8.40;;;;;;;;;;5035920;28;20186;-64
2023/07/22 06:20:34;;;;;;;9.37;8.37;;;;;;;;;;5038128;28;20203;-64
2023/07/22 06:23:00;;;;;;;11.43;9.23;;;;;;;;;;5019726;28;20199;-64
2023/07/22 06:25:26;;;;;;;11.03;9.23;;;;;;;;;;5036697;28;20180;-64
2023/07/22 06:27:54;;;;;;;11.67;8.53;;;;;;;;;;5017698;28;20179;-64
2023/07/22 06:30:20;;;;;;;14.83;8.70;;;;;;;;;;5034473;28;20229;-64
2023/07/22 06:32:45;;;;;;;10.37;9.27;;;;;;;;;;5034512;28;20214;-64
2023/07/22 06:35:11;;;;;;;12.60;8.60;;;;;;;;;;5016880;28;20536;-64
2023/07/22 06:37:38;;;;;;;14.07;8.80;;;;;;;;;;5034554;28;20183;-64
2023/07/22 06:40:04;;;;;;;10.87;8.63;;;;;;;;;;5016789;28;20211;-64
2023/07/22 06:42:30;;;;;;;11.27;8.63;;;;;;;;;;5034331;28;20195;-64
2023/07/22 06:44:56;;;;;;;15.70;9.47;;;;;;;;;;5034651;28;20655;-64
2023/07/22 06:47:22;;;;;;;11.73;9.00;;;;;;;;;;5034305;28;20648;-64
2023/07/22 06:49:48;;;;;;;11.13;9.70;;;;;;;;;;5016427;28;20664;-64
2023/07/22 06:52:14;;;;;;;12.20;9.07;;;;;;;;;;5034237;28;20190;-64
2023/07/22 06:54:40;;;;;;;14.50;9.20;;;;;;;;;;5016616;28;20191;-64
2023/07/22 06:57:06;;;;;;;12.17;10.00;;;;;;;;;;5016362;28;20210;-65
2023/07/22 06:59:32;;;;;;;11.03;9.07;;;;;;;;;;5034213;28;20207;-64
2023/07/22 07:01:59;;;;;;;10.73;9.07;;;;;;;;;;5033930;28;20247;-64
2023/07/22 07:04:25;;;;;;;12.50;9.53;;;;;;;;;;5034661;28;20255;-64
2023/07/22 07:06:51;;;;;;;11.97;8.87;;;;;;;;;;5034374;28;20222;-64
2023/07/22 07:09:17;;;;;;;15.57;9.93;;;;;;;;;;5034050;28;20192;-64
2023/07/22 07:11:43;;;;;;;14.23;8.83;;;;;;;;;;5033997;28;20709;-64
2023/07/22 07:14:09;;;;;;;9.03;7.70;;;;;;;;;;5034063;28;20182;-64
2023/07/22 07:16:35;;;;;;;10.47;8.47;;;;;;;;;;5033862;28;20183;-64
2023/07/22 07:19:01;;;;;;;14.37;9.63;;;;;;;;;;5016143;28;20297;-64
2023/07/22 07:21:28;;;;;;;15.33;9.00;;;;;;;;;;5034098;28;20274;-64
2023/07/22 07:23:54;;;;;;;12.60;9.93;;;;;;;;;;5033886;28;20180;-64
2023/07/22 07:26:20;;;;;;;12.23;9.37;;;;;;;;;;5016410;28;20259;-64
2023/07/22 07:28:47;;;;;;;13.57;9.57;;;;;;;;;;5034440;28;20580;-64
2023/07/22 07:31:13;;;;;;;14.30;9.47;;;;;;;;;;5033441;28;20175;-64
2023/07/22 07:33:39;;;;;;;13.03;9.83;;;;;;;;;;5033857;28;20167;-64
2023/07/22 07:36:05;;;;;;;12.47;9.07;;;;;;;;;;5015671;28;20261;-64
2023/07/22 07:38:32;;;;;;;12.43;9.07;;;;;;;;;;5033610;28;20175;-64
2023/07/22 07:40:59;;;;;;;11.93;9.57;;;;;;;;;;5033404;28;20320;-64
2023/07/22 07:43:25;;;;;;;12.63;9.30;;;;;;;;;;5014874;28;20230;-64
2023/07/22 07:45:51;;;;;;;15.47;8.70;;;;;;;;;;5033535;28;20210;-65
2023/07/22 07:48:17;;;;;;;9.70;8.50;;;;;;;;;;5015703;28;20241;-64
2023/07/22 07:50:43;;;;;;;11.70;9.57;;;;;;;;;;5033307;28;20214;-64
2023/07/22 07:53:09;;;;;;;13.03;9.73;;;;;;;;;;5033340;28;20195;-64
2023/07/22 07:55:35;;;;;;;11.93;9.60;;;;;;;;;;5033542;28;20237;-64
2023/07/22 07:58:01;;;;;;;13.50;8.60;;;;;;;;;;5033270;28;20558;-64
2023/07/22 08:00:27;;;;;;;11.23;8.40;;;;;;;;;;5015400;28;20592;-64
2023/07/22 08:02:53;;;;;;;10.37;8.43;;;;;;;;;;5033111;28;20199;-64
2023/07/22 08:05:19;;;;;;;9.50;8.50;;;;;;;;;;5033124;28;20217;-65
2023/07/22 08:07:45;;;;;;;14.40;8.37;;;;;;;;;;5033233;28;20183;-65
2023/07/22 08:10:11;;;;;;;10.20;8.10;;;;;;;;;;5033214;28;20186;-65
2023/07/22 08:12:37;;;;;;;10.43;8.30;;;;;;;;;;5032953;28;20285;-62
2023/07/22 08:15:03;;;;;;;9.13;7.83;;;;;;;;;;5015398;28;20193;-63
2023/07/22 08:17:29;;;;;;;10.77;8.23;;;;;;;;;;5033485;28;20183;-63
2023/07/22 08:19:55;;;;;;;8.73;7.53;;;;;;;;;;5033207;28;20286;-63
2023/07/22 08:22:21;;;;;;;9.60;8.53;;;;;;;;;;5015172;28;20203;-64
2023/07/22 08:24:47;;;;;;;8.67;7.60;;;;;;;;;;5033209;28;20187;-65
2023/07/22 08:27:13;;;;;;;10.03;8.10;;;;;;;;;;5033167;28;20172;-65
2023/07/22 08:29:39;;;;;;;9.50;7.63;;;;;;;;;;5032911;28;20263;-64
2023/07/22 08:32:05;;;;;;;8.73;7.20;;;;;;;;;;5015176;28;20223;-64
2023/07/22 08:34:31;;;;;;;9.57;7.17;;;;;;;;;;5033671;28;20179;-64
2023/07/22 08:36:57;;;;;;;9.67;7.17;;;;;;;;;;5015569;28;20218;-64
2023/07/22 08:39:23;;;;;;;6.03;5.33;;;;;;;;;;5034270;28;20237;-64
2023/07/22 08:41:50;;;;;;;8.90;7.33;;;;;;;;;;5036032;28;20200;-64
2023/07/22 08:44:19;;;;;;;9.10;7.37;;;;;;;;;;5034879;28;20175;-64
2023/07/22 08:46:46;;;;;;;9.23;7.30;;;;;;;;;;5015164;28;20179;-64
2023/07/22 08:49:12;;;;;;;11.23;7.77;;;;;;;;;;5032956;28;20179;-65
2023/07/22 08:51:39;;;;;;;8.13;6.70;;;;;;;;;;5015004;28;20203;-64
2023/07/22 08:54:06;;;;;;;9.03;6.33;;;;;;;;;;5034156;28;20175;-64
2023/07/22 08:56:32;;;;;;;9.97;6.93;;;;;;;;;;5036644;28;20175;-64
2023/07/22 08:58:58;;;;;;;8.60;5.80;;;;;;;;;;5018507;28;20553;-64
2023/07/22 09:01:24;;;;;;;8.90;6.10;;;;;;;;;;5036284;28;20202;-64
2023/07/22 09:03:52;;;;;;;9.07;6.37;;;;;;;;;;5018534;28;20179;-64
2023/07/22 09:06:19;;;;;;;7.33;6.00;;;;;;;;;;5036338;28;20175;-64
2023/07/22 09:08:45;;;;;;;8.57;6.27;;;;;;;;;;5036220;28;20171;-64
2023/07/22 09:11:11;;;;;;;6.57;5.93;;;;;;;;;;5036167;28;20179;-63
2023/07/22 09:13:39;;;;;;;6.63;5.93;;;;;;;;;;5036177;28;20214;-63
2023/07/22 09:16:05;;;;;;;6.57;5.47;;;;;;;;;;5018357;28;20183;-64
2023/07/22 09:18:33;;;;;;;7.43;5.30;;;;;;;;;;5018299;28;20179;-64
2023/07/22 09:20:59;;;;;;;5.60;4.97;;;;;;;;;;5036505;28;20174;-64
2023/07/22 09:23:38;;;;;;;5.33;4.80;;;;;;;;;;5036312;28;20195;-63
2023/07/22 09:26:11;;;;;;;8.60;5.73;;;;;;;;;;5018280;28;20179;-64
2023/07/22 09:28:56;;;;;;;5.43;4.90;;;;;;;;;;5035866;28;20191;-63
2023/07/22 09:31:23;;;;;;;7.73;5.07;;;;;;;;;;5018030;28;20182;-64
2023/07/22 09:33:49;;;;;;;10.30;5.27;;;;;;;;;;5036086;28;20167;-64
2023/07/22 09:36:15;;;;;;;5.50;4.40;;;;;;;;;;5035898;28;20186;-64
2023/07/22 09:38:41;;;;;;;4.97;4.40;;;;;;;;;;5035745;28;20641;-64
2023/07/22 09:41:08;;;;;;;5.57;4.60;;;;;;;;;;5035499;28;20194;-63
2023/07/22 09:43:38;;;;;;;6.10;4.67;;;;;;;;;;5035597;28;20641;-64
2023/07/22 09:46:08;;;;;;;5.93;4.50;;;;;;;;;;5035484;28;20222;-64
2023/07/22 09:48:47;;;;;;;6.50;4.60;;;;;;;;;;5035491;28;20177;-64
2023/07/22 09:51:16;;;;;;;6.67;4.87;;;;;;;;;;5036180;28;20190;-64
2023/07/22 09:53:46;;;;;;;7.17;4.80;;;;;;;;;;5035821;28;20190;-64
2023/07/22 09:56:12;;;;;;;6.17;4.40;;;;;;;;;;5035378;28;20175;-64
2023/07/22 09:58:38;;;;;;;5.17;4.67;;;;;;;;;;5035852;28;20175;-64
2023/07/22 10:01:05;;;;;;;6.67;5.30;;;;;;;;;;5017554;28;20282;-64
2023/07/22 10:03:31;;;;;;;5.50;4.83;;;;;;;;;;5017578;28;20186;-64
2023/07/22 10:06:00;;;;;;;5.80;5.20;;;;;;;;;;5034434;28;20175;-64
2023/07/22 10:08:27;;;;;;;10.40;5.27;;;;;;;;;;5035407;28;20202;-64
2023/07/22 10:10:54;;;;;;;5.57;4.30;;;;;;;;;;5017432;28;20189;-64
2023/07/22 10:13:20;;;;;;;5.80;4.40;;;;;;;;;;5035160;28;20703;-64
2023/07/22 10:15:46;;;;;;;7.60;4.80;;;;;;;;;;5017306;28;20187;-64
2023/07/22 10:18:12;;;;;;;4.80;3.77;;;;;;;;;;5034874;28;20584;-64
2023/07/22 10:20:39;;;;;;;9.20;4.20;;;;;;;;;;5035056;28;20203;-64
2023/07/22 10:23:08;;;;;;;5.13;4.40;;;;;;;;;;5016979;28;20205;-64
2023/07/22 10:25:34;;;;;;;5.47;3.80;;;;;;;;;;5035252;28;20171;-64
2023/07/22 10:28:00;;;;;;;6.07;3.80;;;;;;;;;;5035269;28;20664;-65
2023/07/22 10:30:26;;;;;;;5.90;3.90;;;;;;;;;;5034736;28;20175;-63
2023/07/22 10:32:53;;;;;;;5.73;4.10;;;;;;;;;;5034658;28;20219;-65
2023/07/22 10:35:24;;;;;;;7.67;3.97;;;;;;;;;;5016877;28;20183;-65
2023/07/22 10:37:50;;;;;;;6.57;3.73;;;;;;;;;;5016866;28;20664;-65
2023/07/22 10:40:20;;;;;;;5.93;4.10;;;;;;;;;;5016780;28;20203;-65
2023/07/22 10:42:53;;;;;;;6.53;4.00;;;;;;;;;;5034747;28;20241;-65
2023/07/22 10:45:29;;;;;;;4.30;3.50;;;;;;;;;;5034741;28;20225;-65
2023/07/22 10:48:14;;;;;;;3.63;3.10;;;;;;;;;;5016738;28;20203;-65
2023/07/22 10:50:41;;;;;;;4.03;3.50;;;;;;;;;;5016471;28;20277;-64
2023/07/22 10:53:09;;;;;;;4.33;3.50;;;;;;;;;;5034204;28;20203;-64
2023/07/22 10:55:55;;;;;;;5.20;3.53;;;;;;;;;;5034104;28;20210;-63
2023/07/22 10:58:21;;;;;;;6.07;3.50;;;;;;;;;;5034082;28;20183;-64
2023/07/22 11:00:47;;;;;;;4.90;3.70;;;;;;;;;;5034104;28;20562;-64
2023/07/22 11:03:15;;;;;;;5.50;3.70;;;;;;;;;;5033983;28;20652;-64
2023/07/22 11:05:48;;;;;;;6.50;3.90;;;;;;;;;;5034288;28;20168;-63
2023/07/22 11:08:14;;;;;;;3.40;3.10;;;;;;;;;;5034198;28;20644;-64
2023/07/22 11:10:52;;;;;;;4.33;3.20;;;;;;;;;;5034245;28;20187;-64
2023/07/22 11:13:19;;;;;;;3.77;3.07;;;;;;;;;;5034187;28;20195;-64
2023/07/22 11:15:48;;;;;;;4.63;3.47;;;;;;;;;;5033865;28;20183;-64
2023/07/22 11:18:14;;;;;;;5.10;3.60;;;;;;;;;;5035454;28;20653;-64
2023/07/22 11:20:40;;;;;;;4.57;3.50;;;;;;;;;;5036498;28;20205;-64
2023/07/22 11:23:06;;;;;;;4.23;3.57;;;;;;;;;;5035380;28;20199;-63
2023/07/22 11:25:34;;;;;;;4.07;3.00;;;;;;;;;;5033890;28;20258;-64
2023/07/22 11:28:00;;;;;;;4.13;3.60;;;;;;;;;;5033726;28;20618;-64
2023/07/22 11:30:27;;;;;;;4.30;3.40;;;;;;;;;;5033883;28;20598;-64
2023/07/22 11:32:53;;;;;;;6.47;3.27;;;;;;;;;;5033437;28;20238;-64
2023/07/22 11:35:19;;;;;;;5.43;3.27;;;;;;;;;;5033858;28;20325;-64
2023/07/22 11:37:45;;;;;;;3.43;2.70;;;;;;;;;;5015869;28;20663;-64
2023/07/22 11:40:13;;;;;;;3.20;2.90;;;;;;;;;;5033891;28;20613;-64
2023/07/22 11:42:39;;;;;;;4.03;2.83;;;;;;;;;;5015678;28;20230;-67
2023/07/22 11:45:06;;;;;;;4.27;2.60;;;;;;;;;;5033460;28;20210;-65
2023/07/22 11:47:32;;;;;;;4.37;3.23;;;;;;;;;;5033321;28;20551;-65
2023/07/22 11:49:58;;;;;;;3.97;3.00;;;;;;;;;;5033632;28;20187;-64
2023/07/22 11:52:24;;;;;;;3.50;2.90;;;;;;;;;;5033448;28;20202;-66
2023/07/22 11:54:50;;;;;;;3.43;2.80;;;;;;;;;;5015853;28;20191;-65
2023/07/22 11:57:21;;;;;;;3.23;2.30;;;;;;;;;;5015736;28;20195;-65
2023/07/22 11:59:48;;;;;;;4.40;2.53;;;;;;;;;;5033327;28;20296;-67
2023/07/22 12:02:15;;;;;;;6.83;2.57;;;;;;;;;;5033527;28;20199;-65
2023/07/22 12:04:40;;;;;;;2.73;2.50;;;;;;;;;;5033314;28;20179;-63
2023/07/22 12:07:06;;;;;;;2.97;2.20;;;;;;;;;;5048104;22;20719;-67
2023/07/22 12:09:32;;;;;;;4.03;2.60;;;;;;;;;;5033517;28;20612;-67
2023/07/22 12:12:00;;;;;;;3.53;2.70;;;;;;;;;;5034075;28;20591;-67
2023/07/22 12:14:34;;;;;;;5.17;3.07;;;;;;;;;;5034161;28;20217;-66
2023/07/22 12:17:00;;;;;;;3.20;2.83;;;;;;;;;;5015671;28;20213;-67
2023/07/22 12:19:27;;;;;;;5.20;3.10;;;;;;;;;;5033022;28;20207;-67
2023/07/22 12:21:53;;;;;;;3.07;2.47;;;;;;;;;;5015280;28;20236;-63
2023/07/22 12:24:19;;;;;;;3.53;3.13;;;;;;;;;;5015451;28;20191;-67
2023/07/22 12:26:45;;;;;;;5.53;3.00;;;;;;;;;;5015050;28;20226;-67
2023/07/22 12:29:11;;;;;;;3.23;2.90;;;;;;;;;;5016963;28;20254;-67
2023/07/22 12:31:37;;;;;;;4.70;3.03;;;;;;;;;;5019166;28;20179;-68
2023/07/22 12:34:03;;;;;;;3.30;2.90;;;;;;;;;;5018943;28;20225;-67
2023/07/22 12:36:30;;;;;;;4.33;3.53;;;;;;;;;;5037228;28;20274;-67
2023/07/22 12:38:56;;;;;;;4.60;3.30;;;;;;;;;;5036756;28;20183;-67
2023/07/22 12:41:22;;;;;;;3.77;3.03;;;;;;;;;;5019060;28;20182;-68
2023/07/22 12:43:49;;;;;;;3.20;2.90;;;;;;;;;;5036665;28;20175;-67
2023/07/22 12:46:15;;;;;;;5.43;3.03;;;;;;;;;;5037122;28;20651;-67
2023/07/22 12:48:41;;;;;;;3.40;2.97;;;;;;;;;;5036680;28;20258;-67
2023/07/22 12:51:09;;;;;;;4.00;3.13;;;;;;;;;;5018833;28;20181;-68
2023/07/22 12:53:35;;;;;;;5.90;3.07;;;;;;;;;;5036667;28;20182;-68
2023/07/22 12:56:03;;;;;;;3.33;3.00;;;;;;;;;;5037288;28;20175;-67
2023/07/22 12:58:29;;;;;;;3.00;2.70;;;;;;;;;;5018743;28;20218;-68
2023/07/22 13:00:55;;;;;;;6.03;3.17;;;;;;;;;;5018772;28;20238;-68
2023/07/22 13:03:21;;;;;;;8.60;2.97;;;;;;;;;;5018706;28;20581;-67
2023/07/22 13:05:47;;;;;;;3.87;2.63;;;;;;;;;;5036507;28;20183;-68
2023/07/22 13:08:12;;;;;;;8.33;2.93;;;;;;;;;;5018487;28;20680;-67
2023/07/22 13:10:39;;;;;;;6.07;3.00;;;;;;;;;;5018561;28;20183;-67
2023/07/22 13:13:05;;;;;;;3.60;2.90;;;;;;;;;;5018205;28;20183;-67
2023/07/22 13:15:31;;;;;;;4.07;2.90;;;;;;;;;;5036023;28;20179;-67
2023/07/22 13:17:57;;;;;;;3.80;2.90;;;;;;;;;;5035816;28;20203;-67
2023/07/22 13:20:23;;;;;;;3.70;3.20;;;;;;;;;;5036015;28;20226;-68
2023/07/22 13:22:49;;;;;;;3.80;3.40;;;;;;;;;;5018235;28;20184;-67
2023/07/22 13:25:15;;;;;;;4.00;3.60;;;;;;;;;;5035955;28;20281;-68
2023/07/22 13:27:41;;;;;;;5.93;3.73;;;;;;;;;;5018269;28;20221;-67
2023/07/22 13:30:08;;;;;;;4.00;3.60;;;;;;;;;;5036320;28;20707;-68
2023/07/22 13:32:34;;;;;;;4.67;3.80;;;;;;;;;;5018479;28;20186;-67
2023/07/22 13:35:00;;;;;;;4.20;3.73;;;;;;;;;;5035900;28;20175;-67
2023/07/22 13:37:26;;;;;;;8.97;4.40;;;;;;;;;;5018035;28;20210;-67
2023/07/22 13:39:53;;;;;;;3.80;3.20;;;;;;;;;;5018721;28;20672;-66
2023/07/22 13:42:19;;;;;;;7.83;3.80;;;;;;;;;;5019279;28;20179;-67
2023/07/22 13:44:45;;;;;;;3.37;2.63;;;;;;;;;;5037005;28;20183;-67
2023/07/22 13:47:11;;;;;;;4.93;3.80;;;;;;;;;;5035560;28;20199;-68
2023/07/22 13:49:37;;;;;;;13.63;4.07;;;;;;;;;;5035692;28;20205;-68
2023/07/22 13:52:03;;;;;;;4.87;3.60;;;;;;;;;;5035677;28;20176;-67
2023/07/22 13:54:29;;;;;;;4.37;2.97;;;;;;;;;;5035846;28;20262;-67
2023/07/22 13:56:54;;;;;;;8.10;3.33;;;;;;;;;;5035563;28;20195;-67
2023/07/22 13:59:21;;;;;;;4.20;2.83;;;;;;;;;;5035373;28;20203;-67
2023/07/22 14:01:47;;;;;;;4.83;3.10;;;;;;;;;;5035475;28;20589;-67
2023/07/22 14:04:13;;;;;;;4.43;3.30;;;;;;;;;;5035433;28;20172;-67
2023/07/22 14:06:39;;;;;;;4.47;3.13;;;;;;;;;;5035308;28;20714;-67
2023/07/22 14:09:05;;;;;;;4.77;3.60;;;;;;;;;;5018329;28;20626;-67
2023/07/22 14:11:31;;;;;;;7.43;3.90;;;;;;;;;;5018027;28;20633;-67
2023/07/22 14:13:57;;;;;;;5.20;3.50;;;;;;;;;;5036028;28;20228;-67
2023/07/22 14:16:23;;;;;;;5.67;4.83;;;;;;;;;;5035072;28;20286;-66
2023/07/22 14:18:49;;;;;;;4.13;3.30;;;;;;;;;;5017223;28;20240;-67
2023/07/22 14:21:15;;;;;;;4.07;3.67;;;;;;;;;;5017354;28;20198;-67
2023/07/22 14:23:41;;;;;;;4.27;2.97;;;;;;;;;;5034812;28;20179;-67
2023/07/22 14:26:07;;;;;;;5.77;3.40;;;;;;;;;;5035344;28;20175;-67
2023/07/22 14:28:34;;;;;;;4.60;4.07;;;;;;;;;;5034668;28;20320;-67